createdAt,value
2019-02-06T00:02:19.691Z,102433.37
2019-02-06T00:04:50.327Z,102431.40
2019-02-06T00:07:22.511Z,102431.64
2019-02-06T00:09:56.119Z,102430.07
2019-02-06T00:12:26.937Z,102430.07
2019-02-06T00:14:59.177Z,102425.81
2019-02-06T00:17:33.944Z,102426.11
2019-02-06T00:20:06.554Z,102422.50
2019-02-06T00:22:40.554Z,102424.01
2019-02-06T00:25:12.757Z,102419.19
2019-02-06T00:27:49.832Z,102414.25
2019-02-06T00:30:23.392Z,102414.25
2019-02-06T00:32:55.705Z,102402.87
2019-02-06T00:35:26.454Z,102407.63
2019-02-06T00:37:58.679Z,102408.89
2019-02-06T00:40:29.052Z,102405.81
2019-02-06T00:43:08.472Z,102401.25
2019-02-06T00:45:42.857Z,102405.23
2019-02-06T00:48:27.702Z,102400.14
2019-02-06T00:51:01.241Z,102399.34
2019-02-06T00:53:36.611Z,102394.25
2019-02-06T00:56:08.313Z,102378.22
2019-02-06T00:58:38.727Z,102378.22
2019-02-06T01:01:09.354Z,102371.17
2019-02-06T01:03:40.048Z,102371.17
2019-02-06T01:06:13.087Z,102376.34
2019-02-06T01:08:48.753Z,102380.19
2019-02-06T01:11:19.229Z,102379.01
2019-02-06T01:14:14.507Z,102381.38
2019-02-06T01:16:29.686Z,102377.11
2019-02-06T01:19:35.919Z,102386.59
2019-02-06T01:21:37.480Z,102381.09
2019-02-06T01:24:07.822Z,102381.09
2019-02-06T01:26:38.862Z,102378.08
2019-02-06T01:29:09.616Z,102379.98
2019-02-06T01:31:44.799Z,102385.09
2019-02-06T01:34:18.354Z,102375.80
2019-02-06T01:36:53.300Z,102382.80
2019-02-06T01:39:27.271Z,102378.87
2019-02-06T01:41:57.615Z,102372.64
2019-02-06T01:44:28.968Z,102374.44
2019-02-06T01:46:59.612Z,102367.78
2019-02-06T01:49:30.204Z,102363.41
2019-02-06T01:52:02.152Z,102363.22
2019-02-06T01:54:35.195Z,102359.92
2019-02-06T01:57:10.238Z,102350.16
2019-02-06T01:59:40.648Z,102349.47
2019-02-06T02:02:11.836Z,102350.84
2019-02-06T02:04:42.434Z,102339.84
2019-02-06T02:07:13.088Z,102330.63
2019-02-06T02:09:43.831Z,102333.31
2019-02-06T02:12:19.393Z,102337.84
2019-02-06T02:14:53.907Z,102328.73
2019-02-06T02:17:29.147Z,102323.06
2019-02-06T02:20:01.042Z,102316.72
2019-02-06T02:22:33.350Z,102311.74
2019-02-06T02:25:06.328Z,102310.49
2019-02-06T02:27:36.977Z,102312.60
2019-02-06T02:30:09.709Z,102305.44
2019-02-06T02:32:40.089Z,102298.61
2019-02-06T02:35:13.700Z,102294.46
2019-02-06T02:37:48.739Z,102284.06
2019-02-06T02:40:24.466Z,102283.04
2019-02-06T02:42:56.426Z,102278.25
2019-02-06T02:45:31.211Z,102279.73
2019-02-06T02:48:01.892Z,102272.41
2019-02-06T02:50:32.284Z,102284.92
2019-02-06T02:53:02.631Z,102276.97
2019-02-06T02:55:34.136Z,102272.66
2019-02-06T02:58:10.698Z,102267.98
2019-02-06T03:01:04.598Z,102263.20
2019-02-06T03:03:55.003Z,102261.56
2019-02-06T03:06:28.721Z,102262.45
2019-02-06T03:09:03.279Z,102253.71
2019-02-06T03:11:37.220Z,102257.50
2019-02-06T03:14:09.197Z,102263.97
2019-02-06T03:16:45.120Z,102261.56
2019-02-06T03:19:20.605Z,102257.03
2019-02-06T03:21:50.546Z,102251.91
2019-02-06T03:24:21.575Z,102256.48
2019-02-06T03:26:52.477Z,102260.39
2019-02-06T03:29:24.580Z,102253.17
2019-02-06T03:31:56.401Z,102250.66
2019-02-06T03:34:29.630Z,102242.23
2019-02-06T03:37:02.458Z,102240.08
2019-02-06T03:39:38.061Z,102233.74
2019-02-06T03:42:09.952Z,102232.47
2019-02-06T03:44:40.213Z,102221.83
2019-02-06T03:47:10.844Z,102221.59
2019-02-06T03:49:42.796Z,102215.44
2019-02-06T03:52:13.214Z,102214.58
2019-02-06T03:54:43.898Z,102217.06
2019-02-06T03:57:15.327Z,102205.42
2019-02-06T03:59:47.578Z,102208.47
2019-02-06T04:02:19.163Z,102206.73
2019-02-06T04:04:55.250Z,102203.21
2019-02-06T04:07:29.014Z,102203.09
2019-02-06T04:10:03.272Z,102196.73
2019-02-06T04:12:39.193Z,102194.98
2019-02-06T04:15:09.922Z,102196.11
2019-02-06T04:17:40.506Z,102183.24
2019-02-06T04:20:11.655Z,102188.05
2019-02-06T04:22:41.962Z,102183.46
2019-02-06T04:25:14.228Z,102189.03
2019-02-06T04:28:01.940Z,102185.72
2019-02-06T04:30:26.909Z,102175.08
2019-02-06T04:33:01.515Z,102169.55
2019-02-06T04:35:33.437Z,102173.60
2019-02-06T04:38:05.398Z,102168.80
2019-02-06T04:40:36.126Z,102163.74
2019-02-06T04:43:06.917Z,102166.66
2019-02-06T04:45:37.572Z,102161.95
2019-02-06T04:48:09.114Z,102161.95
2019-02-06T04:50:46.647Z,102161.18
2019-02-06T04:53:21.666Z,102151.36
2019-02-06T04:55:53.533Z,102152.00
2019-02-06T04:58:24.134Z,102153.89
2019-02-06T05:00:54.491Z,102156.17
2019-02-06T05:03:25.782Z,102137.72
2019-02-06T05:05:56.302Z,102140.50
2019-02-06T05:08:29.011Z,102149.21
2019-02-06T05:10:59.289Z,102160.22
2019-02-06T05:13:31.537Z,102156.95
2019-02-06T05:16:02.226Z,102158.33
2019-02-06T05:18:32.978Z,102154.79
2019-02-06T05:21:04.915Z,102144.05
2019-02-06T05:23:35.264Z,102149.84
2019-02-06T05:26:16.981Z,102145.67
2019-02-06T05:28:55.179Z,102143.78
2019-02-06T05:31:25.587Z,102136.94
2019-02-06T05:34:03.531Z,102134.81
2019-02-06T05:36:34.013Z,102130.88
2019-02-06T05:39:07.045Z,102129.09
2019-02-06T05:41:38.189Z,102126.30
2019-02-06T05:44:08.486Z,102123.06
2019-02-06T05:49:26.117Z,102123.95
2019-02-06T05:51:56.460Z,102112.45
2019-02-06T05:54:27.955Z,102107.39
2019-02-06T05:56:58.492Z,102102.70
2019-02-06T05:59:32.149Z,102095.38
2019-02-06T06:02:05.329Z,102095.38
2019-02-06T06:04:39.229Z,102101.32
2019-02-06T06:07:14.722Z,102101.82
2019-02-06T06:09:45.392Z,102102.31
2019-02-06T06:12:17.435Z,102096.50
2019-02-06T06:14:48.109Z,102098.27
2019-02-06T06:17:18.451Z,102096.09
2019-02-06T06:19:50.533Z,102101.04
2019-02-06T06:22:40.929Z,102097.00
2019-02-06T06:25:12.489Z,102101.30
2019-02-06T06:27:51.676Z,102101.56
2019-02-06T06:30:26.500Z,102085.84
2019-02-06T06:33:02.623Z,102093.20
2019-02-06T06:35:38.248Z,102090.67
2019-02-06T06:38:09.271Z,102085.71
2019-02-06T06:40:39.610Z,102089.91
2019-02-06T06:43:10.219Z,102094.72
2019-02-06T06:45:42.648Z,102105.46
2019-02-06T06:48:13.985Z,102108.37
2019-02-06T06:50:46.890Z,102114.19
2019-02-06T06:53:20.877Z,102094.22
2019-02-06T06:55:53.867Z,102094.22
2019-02-06T06:58:25.099Z,102094.45
2019-02-06T07:00:56.969Z,102095.98
2019-02-06T07:03:29.590Z,102093.71
2019-02-06T07:05:59.895Z,102093.71
2019-02-06T07:08:35.531Z,102088.27
2019-02-06T07:11:08.553Z,102090.55
2019-02-06T07:13:40.223Z,102094.47
2019-02-06T07:16:10.815Z,102081.54
2019-02-06T07:18:42.636Z,102080.51
2019-02-06T07:21:12.912Z,102076.44
2019-02-06T07:23:46.762Z,102080.73
2019-02-06T07:26:24.987Z,102082.39
2019-02-06T07:28:56.197Z,102076.95
2019-02-06T07:31:31.800Z,102074.42
2019-02-06T07:34:03.371Z,102077.81
2019-02-06T07:36:33.679Z,102069.55
2019-02-06T07:39:07.665Z,102068.78
2019-02-06T07:41:40.377Z,102069.23
2019-02-06T07:44:13.368Z,102078.34
2019-02-06T07:46:45.340Z,102075.52
2019-02-06T07:49:18.584Z,102076.72
2019-02-06T07:51:52.792Z,102078.47
2019-02-06T07:54:30.990Z,102079.22
2019-02-06T07:57:07.463Z,102079.19
2019-02-06T07:59:33.570Z,102076.61
2019-02-06T08:02:03.992Z,102076.09
2019-02-06T08:04:34.743Z,102080.14
2019-02-06T08:07:05.070Z,102079.72
2019-02-06T08:09:40.715Z,102078.55
2019-02-06T08:12:11.149Z,102083.31
2019-02-06T08:14:49.695Z,102078.70
2019-02-06T08:17:35.767Z,102079.47
2019-02-06T08:20:13.588Z,102079.47
2019-02-06T08:22:45.828Z,102083.36
2019-02-06T08:25:28.619Z,102090.06
2019-02-06T08:28:00.860Z,102087.58
2019-02-06T08:30:36.347Z,102088.80
2019-02-06T08:33:06.861Z,102093.86
2019-02-06T08:35:38.393Z,102092.03
2019-02-06T08:38:09.929Z,102078.05
2019-02-06T08:40:46.178Z,102086.88
2019-02-06T08:43:13.930Z,102081.75
2019-02-06T08:45:47.955Z,102080.93
2019-02-06T08:48:30.261Z,102086.84
2019-02-06T08:51:00.276Z,102083.86
2019-02-06T08:53:30.861Z,102085.30
2019-02-06T08:56:01.503Z,102085.97
2019-02-06T08:58:32.192Z,102083.50
2019-02-06T09:01:02.963Z,102082.64
2019-02-06T09:03:39.970Z,102087.09
2019-02-06T09:06:17.302Z,102086.00
2019-02-06T09:08:59.187Z,102087.02
2019-02-06T09:11:32.074Z,102090.38
2019-02-06T09:14:12.259Z,102093.97
2019-02-06T09:16:43.108Z,102083.41
2019-02-06T09:19:13.487Z,102080.16
2019-02-06T09:21:43.806Z,102084.72
2019-02-06T09:24:14.077Z,102072.39
2019-02-06T09:26:46.154Z,102073.05
2019-02-06T09:29:16.786Z,102073.05
2019-02-06T09:31:51.149Z,102082.94
2019-02-06T09:34:23.357Z,102084.72
2019-02-06T09:36:59.173Z,102084.33
2019-02-06T09:39:29.634Z,102092.45
2019-02-06T09:41:59.934Z,102080.16
2019-02-06T09:44:31.270Z,102074.23
2019-02-06T09:47:07.950Z,102078.13
2019-02-06T09:49:38.337Z,102077.22
2019-02-06T09:52:08.663Z,102078.69
2019-02-06T09:54:39.001Z,102074.31
2019-02-06T09:57:09.364Z,102075.14
2019-02-06T09:59:49.595Z,102070.69
2019-02-06T10:02:26.755Z,102061.69
2019-02-06T10:05:05.757Z,102067.87
2019-02-06T10:08:15.189Z,102067.28
2019-02-06T10:10:19.650Z,102062.95
2019-02-06T10:12:57.169Z,102072.96
2019-02-06T10:15:38.149Z,102060.38
2019-02-06T10:18:13.614Z,102068.67
2019-02-06T10:20:48.644Z,102067.23
2019-02-06T10:23:20.873Z,102067.23
2019-02-06T10:25:53.679Z,102071.30
2019-02-06T10:28:24.227Z,102073.23
2019-02-06T10:30:57.143Z,102065.05
2019-02-06T10:33:29.584Z,102070.98
2019-02-06T10:36:03.325Z,102062.80
2019-02-06T10:38:51.162Z,102054.66
2019-02-06T10:41:24.002Z,102053.20
2019-02-06T10:43:54.560Z,102055.70
2019-02-06T10:46:26.493Z,102050.18
2019-02-06T10:48:56.892Z,102062.00
2019-02-06T10:51:27.551Z,102055.18
2019-02-06T10:53:58.336Z,102050.24
2019-02-06T10:56:34.686Z,102046.03
2019-02-06T10:59:11.470Z,102040.10
2019-02-06T11:01:46.521Z,102037.19
2019-02-06T11:04:17.949Z,102035.81
2019-02-06T11:06:51.322Z,102027.36
2019-02-06T11:09:21.569Z,102027.67
2019-02-06T11:11:51.869Z,102028.73
2019-02-06T11:14:22.574Z,102029.09
2019-02-06T11:16:52.932Z,102018.27
2019-02-06T11:19:26.621Z,102014.13
2019-02-06T11:21:59.052Z,102012.06
2019-02-06T11:24:33.677Z,102005.67
2019-02-06T11:27:07.363Z,102005.50
2019-02-06T11:29:38.758Z,101998.11
2019-02-06T11:32:09.103Z,101992.10
2019-02-06T11:34:39.724Z,101998.08
2019-02-06T11:37:10.088Z,101994.09
2019-02-06T11:39:40.686Z,101985.30
2019-02-06T11:42:15.651Z,101983.53
2019-02-06T11:44:58.507Z,101980.03
2019-02-06T11:47:37.187Z,101975.89
2019-02-06T11:50:12.357Z,101963.56
2019-02-06T11:52:42.960Z,101974.12
2019-02-06T11:55:16.179Z,101963.89
2019-02-06T11:57:46.809Z,101965.16
2019-02-06T12:00:43.800Z,101969.97
2019-02-06T12:03:14.495Z,101971.57
2019-02-06T12:05:46.858Z,101968.20
2019-02-06T12:08:23.360Z,101960.11
2019-02-06T12:10:51.715Z,101960.86
2019-02-06T12:13:24.967Z,101955.16
2019-02-06T12:16:07.511Z,101942.05
2019-02-06T12:18:33.172Z,101950.77
2019-02-06T12:21:05.569Z,101947.27
2019-02-06T12:23:36.249Z,101940.30
2019-02-06T12:26:07.817Z,101946.53
2019-02-06T12:28:42.087Z,101944.85
2019-02-06T12:31:11.301Z,101933.50
2019-02-06T12:33:41.688Z,101936.86
2019-02-06T12:36:15.259Z,101929.09
2019-02-06T12:38:53.153Z,101920.55
2019-02-06T12:41:16.592Z,101918.30
2019-02-06T12:43:57.732Z,101912.42
2019-02-06T12:46:23.715Z,101908.30
2019-02-06T12:48:57.719Z,101898.37
2019-02-06T12:51:29.770Z,101890.50
2019-02-06T12:54:00.037Z,101898.52
2019-02-06T12:56:31.024Z,101885.10
2019-02-06T12:59:02.425Z,101884.58
2019-02-06T13:01:35.297Z,101886.09
2019-02-06T13:04:08.911Z,101879.70
2019-02-06T13:06:43.817Z,101875.27
2019-02-06T13:09:19.408Z,101878.69
2019-02-06T13:11:56.632Z,101868.00
2019-02-06T13:14:25.550Z,101857.88
2019-02-06T13:16:58.032Z,101862.12
2019-02-06T13:19:28.518Z,101856.59
2019-02-06T13:21:59.733Z,101859.01
2019-02-06T13:24:30.350Z,101850.23
2019-02-06T13:27:04.401Z,101848.61
2019-02-06T13:29:41.165Z,101844.98
2019-02-06T13:32:16.731Z,101844.10
2019-02-06T13:35:11.079Z,101842.55
2019-02-06T13:37:47.491Z,101842.36
2019-02-06T13:40:20.184Z,101837.05
2019-02-06T13:42:58.994Z,101837.05
2019-02-06T13:45:35.708Z,101839.52
2019-02-06T13:48:06.763Z,101835.23
2019-02-06T13:50:37.641Z,101827.02
2019-02-06T13:53:14.360Z,101822.70
2019-02-06T13:55:47.803Z,101821.62
2019-02-06T13:58:22.591Z,101817.78
2019-02-06T14:01:00.285Z,101816.49
2019-02-06T14:03:29.400Z,101805.43
2019-02-06T14:06:00.051Z,101796.85
2019-02-06T14:08:32.494Z,101789.02
2019-02-06T14:11:03.450Z,101796.02
2019-02-06T14:13:36.665Z,101791.09
2019-02-06T14:16:07.981Z,101781.79
2019-02-06T14:18:48.043Z,101762.08
2019-02-06T14:21:22.424Z,101762.08
2019-02-06T14:24:07.502Z,101766.38
2019-02-06T14:27:02.166Z,101767.91
2019-02-06T14:30:02.858Z,101770.61
2019-02-06T14:33:08.591Z,101760.50
2019-02-06T14:35:52.859Z,101760.78
2019-02-06T14:38:56.516Z,101767.33
2019-02-06T14:41:35.998Z,101763.67
2019-02-06T14:44:38.673Z,101761.71
2019-02-06T14:47:32.198Z,101754.64
2019-02-06T14:50:33.425Z,101758.48
2019-02-06T14:53:46.999Z,101755.51
2019-02-06T14:57:16.409Z,101754.81
2019-02-06T15:00:30.104Z,101750.36
2019-02-06T15:03:51.885Z,101750.55
2019-02-06T15:07:04.605Z,101731.82
2019-02-06T15:10:07.455Z,101739.02
2019-02-06T15:13:30.634Z,101730.54
2019-02-06T15:16:22.330Z,101737.05
2019-02-06T15:19:48.070Z,101732.07
2019-02-06T15:23:05.537Z,101733.05
2019-02-06T15:26:08.525Z,101728.94
2019-02-06T15:29:01.941Z,101725.98
2019-02-06T15:35:15.266Z,101711.27
2019-02-06T15:38:16.378Z,101706.80
2019-02-06T15:41:31.639Z,101697.35
2019-02-06T15:44:33.176Z,101695.24
2019-02-06T15:47:33.140Z,101687.67
2019-02-06T15:50:32.230Z,101670.40
2019-02-06T15:53:54.357Z,101671.73
2019-02-06T15:57:11.675Z,101675.03
2019-02-06T16:00:13.055Z,101686.15
2019-02-06T16:03:16.930Z,101690.39
2019-02-06T16:06:23.449Z,101692.41
2019-02-06T16:09:30.106Z,101687.28
2019-02-06T16:12:44.925Z,101682.08
2019-02-06T16:15:43.971Z,101680.59
2019-02-06T16:19:11.028Z,101681.23
2019-02-06T16:22:19.340Z,101679.95
2019-02-06T16:25:20.558Z,101684.13
2019-02-06T16:28:25.732Z,101678.38
2019-02-06T16:31:31.674Z,101679.45
2019-02-06T16:34:24.823Z,101671.69
2019-02-06T16:37:09.429Z,101677.14
2019-02-06T16:40:02.482Z,101670.20
2019-02-06T16:43:08.484Z,101669.71
2019-02-06T16:46:27.242Z,101659.02
2019-02-06T16:49:18.568Z,101652.48
2019-02-06T16:52:19.690Z,101657.90
2019-02-06T16:55:25.060Z,101661.28
2019-02-06T16:58:35.076Z,101657.36
2019-02-06T17:01:47.034Z,101650.02
2019-02-06T17:05:06.303Z,101648.25
2019-02-06T17:08:17.744Z,101644.30
2019-02-06T17:11:07.538Z,101646.70
2019-02-06T17:14:21.496Z,101649.56
2019-02-06T17:16:59.330Z,101642.56
2019-02-06T17:19:42.885Z,101637.84
2019-02-06T17:22:44.072Z,101634.07
2019-02-06T17:26:00.720Z,101638.88
2019-02-06T17:29:10.664Z,101648.98
2019-02-06T17:32:35.974Z,101639.73
2019-02-06T17:35:39.183Z,101630.29
2019-02-06T17:38:37.061Z,101627.67
2019-02-06T17:41:41.871Z,101622.12
2019-02-06T17:44:48.632Z,101631.81
2019-02-06T17:48:09.018Z,101622.31
2019-02-06T17:51:19.653Z,101606.82
2019-02-06T17:54:23.813Z,101619.06
2019-02-06T17:56:55.384Z,101616.84
2019-02-06T17:59:25.914Z,101612.13
2019-02-06T18:01:56.844Z,101617.14
2019-02-06T18:04:39.927Z,101616.30
2019-02-06T18:07:14.543Z,101612.46
2019-02-06T18:09:47.704Z,101611.09
2019-02-06T18:12:26.176Z,101613.98
2019-02-06T18:14:51.399Z,101612.56
2019-02-06T18:17:21.743Z,101606.90
2019-02-06T18:19:52.199Z,101615.75
2019-02-06T18:22:24.516Z,101613.47
2019-02-06T18:24:58.887Z,101624.43
2019-02-06T18:27:40.085Z,101614.05
2019-02-06T18:30:14.939Z,101611.83
2019-02-06T18:32:45.549Z,101609.64
2019-02-06T18:35:16.491Z,101597.94
2019-02-06T18:37:50.019Z,101609.34
2019-02-06T18:40:26.118Z,101600.38
2019-02-06T18:43:04.044Z,101600.38
2019-02-06T18:45:38.549Z,101593.59
2019-02-06T18:48:13.752Z,101596.14
2019-02-06T18:50:42.498Z,101588.39
2019-02-06T18:53:13.142Z,101589.67
2019-02-06T18:55:43.798Z,101580.28
2019-02-06T18:58:14.167Z,101590.88
2019-02-06T19:00:50.529Z,101581.17
2019-02-06T19:03:26.698Z,101577.24
2019-02-06T19:06:01.577Z,101576.06
2019-02-06T19:08:32.311Z,101574.30
2019-02-06T19:11:04.486Z,101572.95
2019-02-06T19:13:35.142Z,101568.15
2019-02-06T19:16:10.123Z,101563.38
2019-02-06T19:18:44.457Z,101563.70
2019-02-06T19:21:29.509Z,101562.72
2019-02-06T19:24:03.584Z,101569.58
2019-02-06T19:26:34.244Z,101565.27
2019-02-06T19:29:08.156Z,101564.70
2019-02-06T19:31:40.455Z,101564.64
2019-02-06T19:34:11.905Z,101555.54
2019-02-06T19:36:42.337Z,101555.77
2019-02-06T19:39:14.081Z,101556.09
2019-02-06T19:41:47.267Z,101550.11
2019-02-06T19:44:23.143Z,101543.23
2019-02-06T19:46:57.714Z,101539.41
2019-02-06T19:49:29.981Z,101532.42
2019-02-06T19:52:01.970Z,101523.49
2019-02-06T19:54:32.512Z,101526.44
2019-02-06T19:57:09.455Z,101525.38
2019-02-06T19:59:42.550Z,101528.16
2019-02-06T20:02:14.827Z,101523.32
2019-02-06T20:04:47.386Z,101534.63
2019-02-06T20:07:17.697Z,101526.42
2019-02-06T20:09:49.970Z,101520.83
2019-02-06T20:12:20.477Z,101522.81
2019-02-06T20:14:50.881Z,101518.89
2019-02-06T20:17:21.665Z,101506.86
2019-02-06T20:19:52.159Z,101506.40
2019-02-06T20:25:16.893Z,101496.11
2019-02-06T20:27:49.589Z,101495.05
2019-02-06T20:30:36.843Z,101495.70
2019-02-06T20:33:10.159Z,101486.61
2019-02-06T20:35:45.184Z,101481.84
2019-02-06T20:38:20.015Z,101485.49
2019-02-06T20:40:50.343Z,101480.13
2019-02-06T20:43:22.375Z,101479.49
2019-02-06T20:45:56.714Z,101485.77
2019-02-06T20:48:31.907Z,101493.73
2019-02-06T20:51:06.871Z,101484.81
2019-02-06T20:53:37.761Z,101479.77
2019-02-06T20:56:08.369Z,101475.19
2019-02-06T20:58:42.801Z,101467.52
2019-02-06T21:01:14.577Z,101467.17
2019-02-06T21:03:57.324Z,101457.35
2019-02-06T21:06:26.087Z,101457.35
2019-02-06T21:08:58.081Z,101466.63
2019-02-06T21:11:29.108Z,101457.03
2019-02-06T21:13:59.626Z,101446.45
2019-02-06T21:16:37.163Z,101449.17
2019-02-06T21:19:12.168Z,101450.20
2019-02-06T21:21:49.309Z,101442.52
2019-02-06T21:24:29.449Z,101440.57
2019-02-06T21:26:55.011Z,101446.98
2019-02-06T21:29:26.033Z,101444.05
2019-02-06T21:31:56.835Z,101438.47
2019-02-06T21:34:50.042Z,101429.26
2019-02-06T21:37:14.344Z,101434.34
2019-02-06T21:39:46.636Z,101423.09
2019-02-06T21:42:18.928Z,101427.09
2019-02-06T21:44:49.260Z,101430.90
2019-02-06T21:47:36.252Z,101418.73
2019-02-06T21:50:01.835Z,101419.87
2019-02-06T21:52:37.991Z,101423.31
2019-02-06T21:55:17.252Z,101417.83
2019-02-06T21:57:49.461Z,101411.16
2019-02-06T22:00:24.929Z,101404.85
2019-02-06T22:02:55.493Z,101399.13
2019-02-06T22:05:27.693Z,101399.13
2019-02-06T22:08:02.655Z,101399.30
2019-02-06T22:10:35.048Z,101391.95
2019-02-06T22:13:06.366Z,101391.95
2019-02-06T22:15:37.046Z,101395.35
2019-02-06T22:18:07.830Z,101389.95
2019-02-06T22:20:38.375Z,101383.98
2019-02-06T22:23:14.188Z,101379.00
2019-02-06T22:25:46.416Z,101383.27
2019-02-06T22:28:18.805Z,101379.64
2019-02-06T22:30:49.785Z,101379.25
2019-02-06T22:33:46.788Z,101379.64
2019-02-06T22:36:14.631Z,101379.17
2019-02-06T22:38:43.462Z,101366.67
2019-02-06T22:41:07.565Z,101366.67
2019-02-06T22:43:38.252Z,101358.09
2019-02-06T22:46:10.568Z,101358.89
2019-02-06T22:48:41.259Z,101355.99
2019-02-06T22:51:16.546Z,101356.06
2019-02-06T22:53:47.231Z,101345.21
2019-02-06T22:56:18.011Z,101347.50
2019-02-06T22:58:48.621Z,101343.79
2019-02-06T23:01:37.483Z,101339.98
2019-02-06T23:04:08.087Z,101328.39
2019-02-06T23:06:38.780Z,101327.92
2019-02-06T23:09:09.609Z,101327.92
2019-02-06T23:11:40.265Z,101323.41
2019-02-06T23:14:17.196Z,101322.95
2019-02-06T23:16:43.347Z,101315.32
2019-02-06T23:19:26.178Z,101315.60
2019-02-06T23:22:11.866Z,101302.25
2019-02-06T23:24:50.005Z,101302.25
2019-02-06T23:27:40.397Z,101300.59
2019-02-06T23:30:25.684Z,101306.38
2019-02-06T23:33:02.055Z,101302.95
2019-02-06T23:35:57.911Z,101296.88
2019-02-06T23:39:09.652Z,101300.63
2019-02-06T23:40:51.481Z,101288.23
2019-02-06T23:43:21.988Z,101288.61
2019-02-06T23:45:53.829Z,101281.38
2019-02-06T23:48:27.698Z,101279.33
2019-02-06T23:51:07.458Z,101272.88
2019-02-06T23:53:41.359Z,101271.99
2019-02-06T23:56:14.185Z,101262.14
2019-02-06T23:58:44.588Z,101255.79
